• Join FlightAware (Why Join?)
  • Login
  • US Flag 
03:13AM EST


 

Airport Tracker/Info


-or-


 

Live Flight TrackerFlight Track Log ✈ SWA835 ✈ 25-Apr-2014 ✈ KJAX - KFLL

Flight Track Log - Related Links

Times and Time Zones

All times are in EDT time to prevent confusion due to time zone crossing. See the SWA835 flight status page for this flight to view local times or setup timezone preferences in your user account.

Time Position Orientation Groundspeed Altitude Reporting Facility
EDT Latitude Longitude Course Direction KTS MPH feet Rate Location/Type
02:51PM 30.4992 -81.7353 277° West 171 197 1,900  Level Jacksonville Center
02:52PM 30.4703 -81.7597 216° Southwest 223 257 3,200 2,361 Climbing Jacksonville Center
02:52PM 30.4472 -81.7625 186° South 243 280 4,300 2,400 Climbing Jacksonville Center
02:53PM 30.4053 -81.7436 159° South 292 336 5,600 2,361 Climbing Jacksonville Center
02:53PM 30.3822 -81.7175 136° Southeast 302 348 6,700 2,951 Climbing Jacksonville Center
02:54PM 30.3464 -81.6747 134° Southeast 302 348 8,600 3,148 Climbing Jacksonville Center
02:54PM 30.3211 -81.6508 141° Southeast 303 349 9,900 2,034 Climbing Jacksonville Center
02:55PM 30.2808 -81.6056 136° Southeast 309 356 10,600 1,608 Climbing Jacksonville Center
02:56PM 30.2175 -81.5369 137° Southeast 333 383 12,500 2,231 Climbing Jacksonville Center
02:57PM 30.1394 -81.4514 137° Southeast 360 414 15,100 2,479 Climbing Jacksonville Center
02:58PM 30.0611 -81.3686 138° Southeast 374 430 17,500 2,118 Climbing Jacksonville Center
02:59PM 29.9786 -81.2789 137° Southeast 384 442 19,300 1,750 Climbing Jacksonville Center
03:00PM 29.8939 -81.1917 138° Southeast 403 464 21,000 1,800 Climbing Jacksonville Center
03:01PM 29.7831 -81.1600 166° South 403 464 22,900 1,815 Climbing Jacksonville Center
03:02PM 29.6681 -81.1525 177° South 402 463 24,600 1,736 Climbing Jacksonville Center
03:03PM 29.5531 -81.1425 176° South 412 474 26,400 1,410 Climbing Jacksonville Center
03:05PM 29.2792 -81.0883 170° South 434 499 29,300 1,266 Climbing Miami Center
03:06PM 29.1861 -80.9922 138° Southeast 422 486 30,600 1,300 Climbing Miami Center
03:07PM 29.0931 -80.8889 136° Southeast 440 506 31,900 1,200 Climbing Miami Center
03:08PM 29.0019 -80.7908 137° Southeast 453 521 33,000 1,000 Climbing Miami Center
03:09PM 28.9131 -80.6903 135° Southeast 453 521 33,900 500 Climbing Miami Center
03:10PM 28.8075 -80.5778 137° Southeast 464 534 34,000 50 Climbing Miami Center
03:11PM 28.7142 -80.4753 136° Southeast 464 534 34,000  Level Miami Center
03:12PM 28.6164 -80.3753 138° Southeast 464 534 34,000  Level Miami Center
03:13PM 28.5269 -80.2872 139° Southeast 471 542 34,000  Level Miami Center
03:14PM 28.4114 -80.2319 157° South 451 519 34,000  Level Miami Center
03:15PM 28.2811 -80.1783 160° South 458 527 34,000  Level Miami Center
03:16PM 28.1633 -80.1278 159° South 458 527 34,000  Level Miami Center
03:17PM 28.0453 -80.0797 160° South 463 533 34,000  Level Miami Center
03:18PM 27.9378 -80.0344 160° South 463 533 34,000  Level Miami Center
03:19PM 27.8033 -79.9814 161° South 463 533 34,000 -750 Level Miami Center
03:20PM 27.6833 -79.9311 160° South 463 533 32,500 -2,150 Descending Miami Center
03:21PM 27.5675 -79.8836 160° South 458 527 29,700 -2,800 Descending Miami Center
03:22PM 27.4494 -79.8336 159° South 458 527 26,900 -2,550 Descending Miami Center
03:23PM 27.3478 -79.7936 161° South 439 505 24,600 -1,450 Descending Miami Center
03:24PM 27.2358 -79.7628 166° South 421 484 24,000 -1,050 Descending Miami Center
03:25PM 27.1150 -79.7433 172° South 406 467 22,500 -1,800 Descending Miami Center
03:26PM 27.0067 -79.7267 172° South 406 467 20,400 -2,100 Descending Miami Center
03:27PM 26.9028 -79.7103 172° South 399 459 18,300 -2,550 Descending Miami Center
03:28PM 26.8006 -79.6914 171° South 388 447 15,300 -2,905 Descending Miami Center
03:30PM 26.6853 -79.7164 191° South 385 443 12,200 -2,500 Descending Miami Center
03:30PM 26.6031 -79.7564 204° Southwest 359 413 10,300 -1,211 Descending Miami Center
03:31PM 26.5189 -79.7939 202° Southwest 359 413 9,900 -1,065 Descending Miami Center
03:32PM 26.4367 -79.8311 202° Southwest 279 321 8,100 -1,000 Descending Miami Center
03:33PM 26.3731 -79.8689 208° Southwest 305 351 7,900 -776 Descending Miami Center
03:34PM 26.3178 -79.9256 223° Southwest 285 328 6,600 -1,250 Descending Miami Center
03:35PM 26.3028 -79.9389 219° Southwest 269 310 6,400 -700 Descending Miami Center
03:35PM 26.2603 -79.9772 219° Southwest 274 315 5,900 -393 Descending Miami Center
03:36PM 26.2431 -79.9908 215° Southwest 261 300 6,000  Climbing Miami Center
03:36PM 26.2025 -80.0336 223° Southwest 274 315 5,900 -98 Descending Miami Center
03:37PM 26.1833 -80.0494 217° Southwest 267 307 5,900  Level Miami Center
03:37PM 26.1700 -80.0931 251° West 234 269 5,900 -170 Level Miami Center
03:38PM 26.1519 -80.1503 251° West 226 260 5,600 -395 Descending Miami Center
03:39PM 26.1472 -80.1686 254° West 184 212 5,400 -1,000 Descending Miami Center
03:39PM 26.1506 -80.2081 275° West 204 235 4,600 -968 Descending Miami Center
03:40PM 26.1481 -80.2267 261° West 183 211 4,400 -424 Descending Miami Center
03:41PM 26.1486 -80.2936 271° West 191 220 4,000 -207 Descending Miami Center
03:42PM 26.1392 -80.3397 257° West 192 221 4,000 -600 Level Miami Center
03:43PM 26.0850 -80.3336 174° South 207 238 2,900 -1,078 Descending Miami Center
03:44PM 26.0739 -80.2708 101° East 195 224 1,700 -977 Descending Miami Center
03:45PM 26.0753 -80.2153 88° East 151 174 800 -871 Descending Miami Center
03:47PM 26.0667 -80.1500 103° East  Level FlightAware Approximate
03:54PM 26.0726 -80.1527 103° East  Level Estimated